This is the latest recevied weather packets stored in our database for station/object WD4IXD. If no packets are shown the sender has not sent any weather packets the latest 10 day(s).
| Time | Temp. | Humidity | Pressure | Rain* | Wind** | Luminosity | Snow |
|---|---|---|---|---|---|---|---|
| 1777385115 | 4.44° C | 92% | 1016.9 hPa | 0 mm | - | 206 W/m² | - |
| 1777384804 | 4.44° C | 92% | 1016.9 hPa | 0 mm | - | 188 W/m² | - |
| 1777384515 | 4.44° C | 92% | 1016.8 hPa | 0 mm | - | 162 W/m² | - |
| 1777384203 | 4.44° C | 92% | 1016.8 hPa | 0 mm | - | 141 W/m² | - |
| 1777383914 | 4.44° C | 92% | 1016.8 hPa | 0 mm | - | 137 W/m² | - |
| 1777383603 | 4.44° C | 92% | 1016.8 hPa | 0 mm | - | 79 W/m² | - |
| 1777383315 | 3.89° C | 92% | 1016.9 hPa | 0 mm | - | 44 W/m² | - |
| 1777383015 | 3.89° C | 92% | 1016.8 hPa | 0 mm | - | 47 W/m² | - |
| 1777382704 | 3.89° C | 92% | 1016.7 hPa | 0 mm | - | 39 W/m² | - |
| 1777382415 | 3.89° C | 91% | 1016.5 hPa | 0 mm | - | 72 W/m² | - |
| 1777382104 | 3.89° C | 91% | 1016.5 hPa | 0 mm | - | 47 W/m² | - |
| 1777381815 | 3.89° C | 91% | 1016.5 hPa | 0 mm | - | 37 W/m² | - |
| 1777381504 | 3.89° C | 91% | 1016.5 hPa | 0 mm | - | 37 W/m² | - |
| 1777381215 | 3.89° C | 91% | 1016.4 hPa | 0 mm | - | 40 W/m² | - |
| 1777380915 | 3.89° C | 91% | 1016.2 hPa | 0 mm | - | 54 W/m² | - |
| 1777380604 | 3.89° C | 91% | 1016.3 hPa | 0 mm | - | 21 W/m² | - |
| 1777380315 | 3.89° C | 91% | 1016.1 hPa | 0 mm | - | 14 W/m² | - |
| 1777380004 | 3.89° C | 91% | 1016.1 hPa | 0 mm | - | 7 W/m² | - |
| 1777379716 | 3.89° C | 90% | 1016.1 hPa | 0 mm | - | 0 W/m² | - |
| 1777379404 | 3.89° C | 91% | 1016 hPa | 0 mm | - | 0 W/m² | - |
| 1777379115 | 3.89° C | 90% | 1015.9 hPa | 0 mm | - | 0 W/m² | - |
| 1777378804 | 3.89° C | 90% | 1015.7 hPa | 0 mm | - | 0 W/m² | - |
| 1777378515 | 3.89° C | 90% | 1015.6 hPa | 0 mm | - | 0 W/m² | - |
| 1777378215 | 4.44° C | 90% | 1015.5 hPa | 0 mm | - | 0 W/m² | - |
| 1777377904 | 4.44° C | 90% | 1015.4 hPa | 0 mm | - | 0 W/m² | - |
* Rain latest hour (hover to see other rain measurements)
** Current wind speed in m/s (hover to see current wind gust speed)